Time;durP1;ratioP1;P1;durP2;ratioP2;P2;SDS_P1;SDS_P2;PMS_P1;PMS_P2;Temp;Humidity;BMP_temperature;BMP_pressure;BME280_temperature;BME280_humidity;BME280_pressure;Samples;Min_cycle;Max_cycle;Signal;HPM_P1;HPM_P2
2022/03/20 00:02:23;;;;;;;37.10;15.52;;;;;;;3.28;46.96;102033.91;5058908;28;20036;-70
2022/03/20 00:04:49;;;;;;;30.80;15.32;;;;;;;3.29;46.96;102020.03;5059994;28;20041;-67
2022/03/20 00:07:14;;;;;;;33.47;14.73;;;;;;;3.28;46.89;102028.72;5048136;28;20636;-68
2022/03/20 00:09:39;;;;;;;41.75;17.08;;;;;;;3.23;47.13;102035.69;5060004;28;20048;-65
2022/03/20 00:12:05;;;;;;;36.00;15.75;;;;;;;3.19;47.40;102021.00;5060627;28;20478;-67
2022/03/20 00:14:31;;;;;;;35.25;17.50;;;;;;;3.17;47.76;102022.75;5060095;28;20128;-69
2022/03/20 00:16:56;;;;;;;38.45;14.70;;;;;;;3.15;47.42;102020.16;5059090;28;20176;-70
2022/03/20 00:19:21;;;;;;;33.30;15.43;;;;;;;3.12;47.58;102022.81;5059732;28;20028;-69
2022/03/20 00:21:47;;;;;;;35.88;15.50;;;;;;;3.08;47.69;102016.78;5058776;28;20032;-68
2022/03/20 00:24:12;;;;;;;31.35;14.65;;;;;;;3.07;47.60;102021.97;5059900;28;20664;-70
2022/03/20 00:26:39;;;;;;;38.22;15.35;;;;;;;3.06;47.87;102007.28;5058953;28;20029;-69
2022/03/20 00:29:06;;;;;;;34.92;16.45;;;;;;;3.03;47.83;102015.09;5059755;28;20036;-70
2022/03/20 00:31:33;;;;;;;38.20;16.33;;;;;;;2.96;48.03;102014.25;5048830;28;20035;-71
2022/03/20 00:33:59;;;;;;;41.15;15.80;;;;;;;2.96;48.39;102008.22;5041846;28;20028;-66
2022/03/20 00:36:24;;;;;;;36.30;16.67;;;;;;;2.93;48.34;102006.53;5058922;28;20053;-68
2022/03/20 00:38:50;;;;;;;39.83;17.27;;;;;;;2.94;48.36;102005.66;5060208;28;20032;-71
2022/03/20 00:41:15;;;;;;;33.97;16.45;;;;;;;2.89;48.21;102000.53;5060078;28;20131;-67
2022/03/20 00:43:41;;;;;;;34.65;16.00;;;;;;;2.87;48.41;101998.81;5064243;28;20040;-67
2022/03/20 00:46:06;;;;;;;36.67;15.90;;;;;;;2.86;48.63;102008.31;5066861;28;20067;-67
2022/03/20 00:48:31;;;;;;;40.47;16.05;;;;;;;2.80;48.47;101994.53;5066283;28;20036;-69
2022/03/20 00:51:03;;;;;;;33.53;16.25;;;;;;;2.77;48.95;101991.97;5067043;28;20070;-67
2022/03/20 00:53:30;;;;;;;34.58;15.57;;;;;;;2.75;48.64;101996.31;5044591;28;20048;-69
2022/03/20 00:55:56;;;;;;;37.20;16.70;;;;;;;2.74;48.88;102002.34;5066588;28;20041;-69
2022/03/20 00:58:21;;;;;;;33.10;16.05;;;;;;;2.74;48.89;102004.94;5067036;28;20452;-67
2022/03/20 01:00:47;;;;;;;32.78;15.32;;;;;;;2.72;48.94;102006.69;5067298;28;20089;-69
2022/03/20 01:03:12;;;;;;;35.15;16.95;;;;;;;2.71;49.19;102000.66;5066236;28;20117;-66
2022/03/20 01:05:38;;;;;;;39.08;16.85;;;;;;;2.66;49.47;101997.22;5066926;28;20086;-70
2022/03/20 01:08:03;;;;;;;35.42;16.63;;;;;;;2.64;49.40;101998.97;5064523;28;20032;-66
2022/03/20 01:10:28;;;;;;;40.95;16.98;;;;;;;2.62;49.28;101991.19;5066823;28;20044;-69
2022/03/20 01:12:55;;;;;;;32.65;16.02;;;;;;;2.63;49.59;101992.03;5067517;28;20381;-66
2022/03/20 01:15:21;;;;;;;33.70;15.43;;;;;;;2.62;49.34;101995.50;5063272;28;20447;-66
2022/03/20 01:17:47;;;;;;;30.85;16.33;;;;;;;2.58;49.67;101984.31;5066097;28;20070;-68
2022/03/20 01:20:13;;;;;;;31.63;16.70;;;;;;;2.58;49.45;101986.91;5065854;28;20037;-66
2022/03/20 01:22:40;;;;;;;35.28;15.85;;;;;;;2.55;49.41;101979.16;5066943;28;20028;-67
2022/03/20 01:25:06;;;;;;;34.85;16.15;;;;;;;2.55;49.58;101979.16;5067194;28;20422;-66
2022/03/20 01:27:33;;;;;;;33.50;15.50;;;;;;;2.55;49.66;101986.06;5065414;28;20033;-69
2022/03/20 01:29:58;;;;;;;42.10;16.65;;;;;;;2.47;49.74;101972.31;5066331;28;20316;-66
2022/03/20 01:32:26;;;;;;;36.08;15.63;;;;;;;2.46;49.44;101979.22;5066208;28;20553;-67
2022/03/20 01:34:52;;;;;;;37.28;17.50;;;;;;;2.40;50.04;101980.09;5047998;28;20031;-67
2022/03/20 01:37:18;;;;;;;34.05;16.52;;;;;;;2.37;50.01;101974.09;5066219;28;20115;-69
2022/03/20 01:39:43;;;;;;;35.83;16.52;;;;;;;2.35;50.40;101979.28;5066908;28;20413;-68
2022/03/20 01:42:09;;;;;;;34.45;16.25;;;;;;;2.32;50.33;101973.25;5047967;28;20044;-68
2022/03/20 01:44:35;;;;;;;37.53;15.48;;;;;;;2.29;50.32;101970.69;5066032;28;20152;-68
2022/03/20 01:47:02;;;;;;;33.15;15.45;;;;;;;2.30;50.81;101968.09;5047168;28;20431;-68
2022/03/20 01:49:27;;;;;;;39.10;15.95;;;;;;;2.29;50.38;101965.50;5065813;28;20119;-66
2022/03/20 01:52:11;;;;;;;37.47;16.15;;;;;;;2.28;50.43;101956.88;5066617;28;20048;-68
2022/03/20 01:54:41;;;;;;;33.65;15.88;;;;;;;2.28;50.22;101953.44;5064994;28;20355;-67
2022/03/20 01:57:07;;;;;;;38.95;16.63;;;;;;;2.28;50.58;101956.88;5063386;28;20085;-69
2022/03/20 01:59:33;;;;;;;34.78;16.25;;;;;;;2.25;50.42;101951.72;5065601;28;20044;-68
2022/03/20 02:01:58;;;;;;;42.20;17.40;;;;;;;2.23;50.65;101947.44;5065931;28;20131;-69
2022/03/20 02:04:23;;;;;;;36.15;15.82;;;;;;;2.22;50.46;101945.69;5064850;28;20529;-68
2022/03/20 02:06:49;;;;;;;36.47;16.20;;;;;;;2.17;50.86;101949.19;5065872;28;20207;-67
2022/03/20 02:09:15;;;;;;;36.83;16.85;;;;;;;2.17;50.94;101950.91;5065990;28;20043;-69
2022/03/20 02:11:42;;;;;;;35.47;15.98;;;;;;;2.16;51.07;101947.47;5057516;28;20551;-67
2022/03/20 02:14:07;;;;;;;45.35;17.30;;;;;;;2.18;51.21;101944.84;5065738;28;20047;-68
2022/03/20 02:16:34;;;;;;;39.03;16.55;;;;;;;2.15;51.15;101948.34;5061145;28;20413;-65
2022/03/20 02:19:00;;;;;;;35.33;16.98;;;;;;;2.15;50.75;101939.69;5048057;28;20016;-68
2022/03/20 02:21:37;;;;;;;35.67;15.75;;;;;;;2.12;51.01;101932.81;5047271;28;20407;-68
2022/03/20 02:24:03;;;;;;;32.63;15.85;;;;;;;2.12;51.17;101929.38;5065066;28;20127;-67
2022/03/20 02:26:29;;;;;;;36.33;15.88;;;;;;;2.09;50.99;101925.06;5064874;28;20480;-67
2022/03/20 02:28:54;;;;;;;40.42;16.88;;;;;;;2.09;51.09;101926.81;5066128;28;20032;-67
2022/03/20 02:31:21;;;;;;;37.95;17.10;;;;;;;2.07;51.00;101918.19;5069300;28;20020;-67
2022/03/20 02:33:46;;;;;;;41.80;15.98;;;;;;;2.04;51.52;101915.59;5068989;28;20024;-68
2022/03/20 02:36:12;;;;;;;38.17;16.88;;;;;;;2.06;51.59;101911.28;5070183;28;20485;-68
2022/03/20 02:38:37;;;;;;;36.85;15.77;;;;;;;2.02;51.41;101900.09;5069398;28;20032;-68
2022/03/20 02:41:14;;;;;;;41.58;17.85;;;;;;;2.02;51.36;101905.28;5069666;28;20128;-68
2022/03/20 02:43:49;;;;;;;36.65;16.58;;;;;;;2.02;51.26;101914.78;5068643;28;20112;-68
2022/03/20 02:46:15;;;;;;;34.05;15.20;;;;;;;1.98;51.49;101901.00;5070129;28;20028;-66
2022/03/20 02:48:41;;;;;;;39.00;16.15;;;;;;;1.97;51.59;101912.22;5068850;28;20340;-69
2022/03/20 02:51:06;;;;;;;34.80;15.88;;;;;;;1.98;51.30;101913.06;5052149;28;20055;-68
2022/03/20 02:53:34;;;;;;;35.10;16.60;;;;;;;1.97;50.94;101914.81;5068494;28;20041;-66
2022/03/20 02:56:00;;;;;;;36.40;16.20;;;;;;;1.93;51.11;101903.59;5050719;28;20111;-67
2022/03/20 02:58:27;;;;;;;40.55;17.15;;;;;;;1.92;51.52;101901.00;5067776;28;20468;-67
2022/03/20 03:00:55;;;;;;;37.85;17.67;;;;;;;1.92;51.41;101903.59;5069299;28;20051;-65
2022/03/20 03:03:21;;;;;;;38.30;17.40;;;;;;;1.93;51.20;101900.16;5068584;28;20137;-69
2022/03/20 03:05:46;;;;;;;42.75;16.92;;;;;;;1.93;51.27;101892.41;5069022;28;20044;-72
2022/03/20 03:10:57;;;;;;;47.58;21.05;;;;;;;1.85;51.66;101889.81;5068987;28;20163;-66
2022/03/20 03:13:29;;;;;;;32.33;15.77;;;;;;;1.86;51.64;101896.75;5061374;28;20110;-68
2022/03/20 03:15:58;;;;;;;38.90;17.10;;;;;;;1.85;51.46;101888.97;5068555;28;20040;-67
2022/03/20 03:18:24;;;;;;;38.17;16.47;;;;;;;1.83;51.90;101891.59;5042363;28;20068;-69
2022/03/20 03:20:50;;;;;;;40.08;15.90;;;;;;;1.82;51.96;101889.88;5067861;28;20320;-67
2022/03/20 03:23:16;;;;;;;40.67;16.48;;;;;;;1.81;51.86;101887.28;5067680;28;20064;-69
2022/03/20 03:25:42;;;;;;;38.67;17.63;;;;;;;1.77;52.11;101886.44;5068101;28;20070;-69
2022/03/20 03:28:09;;;;;;;41.03;17.27;;;;;;;1.79;51.92;101895.06;5085409;22;20041;-69
2022/03/20 03:30:35;;;;;;;35.83;15.70;;;;;;;1.77;52.04;101880.41;5075499;28;20036;-65
2022/03/20 03:33:01;;;;;;;43.20;17.48;;;;;;;1.77;51.97;101889.00;5076168;28;20154;-67
2022/03/20 03:35:41;;;;;;;34.80;15.65;;;;;;;1.75;51.98;101882.16;5075674;28;20160;-68
2022/03/20 03:38:09;;;;;;;35.92;15.43;;;;;;;1.75;52.13;101884.75;5074220;28;20029;-66
2022/03/20 03:40:34;;;;;;;33.97;16.50;;;;;;;1.75;52.04;101882.16;5074953;27;20046;-68
2022/03/20 03:43:00;;;;;;;48.47;16.35;;;;;;;1.70;52.16;101883.00;5077821;28;20054;-67
2022/03/20 03:45:26;;;;;;;43.03;18.25;;;;;;;1.64;52.43;101884.78;5077487;28;20041;-67
2022/03/20 03:47:52;;;;;;;35.03;16.15;;;;;;;1.64;51.82;101879.59;5076494;28;20033;-67
2022/03/20 03:50:18;;;;;;;39.20;16.48;;;;;;;1.62;52.57;101881.34;5076465;28;20037;-66
2022/03/20 03:52:44;;;;;;;40.47;16.58;;;;;;;1.59;52.71;101877.03;5075589;28;20036;-67
2022/03/20 03:55:09;;;;;;;39.08;16.48;;;;;;;1.57;52.49;101890.84;5057796;28;20103;-65
2022/03/20 03:57:34;;;;;;;37.97;16.15;;;;;;;1.56;52.47;101881.34;5076330;28;20028;-68
2022/03/20 04:00:00;;;;;;;39.25;16.02;;;;;;;1.58;52.64;101885.66;5074908;28;20044;-68
2022/03/20 04:02:25;;;;;;;36.67;15.63;;;;;;;1.55;52.51;101884.81;5075211;28;20157;-67
2022/03/20 04:04:51;;;;;;;35.22;16.50;;;;;;;1.52;53.13;101883.13;5057703;28;20509;-67
2022/03/20 04:07:18;;;;;;;31.58;15.18;;;;;;;1.53;52.65;101874.47;5075596;28;20036;-64
2022/03/20 04:09:44;;;;;;;39.70;16.48;;;;;;;1.50;52.94;101871.03;5075930;28;20175;-69
2022/03/20 04:12:10;;;;;;;32.97;14.68;;;;;;;1.50;52.82;101874.50;5075673;28;20032;-68
2022/03/20 04:14:36;;;;;;;41.25;16.65;;;;;;;1.48;53.12;101868.44;5075425;28;20464;-66
2022/03/20 04:17:03;;;;;;;38.08;16.45;;;;;;;1.49;53.28;101866.75;5076050;28;20521;-67
2022/03/20 04:19:28;;;;;;;36.50;15.43;;;;;;;1.45;52.98;101863.31;5075533;28;20052;-69
2022/03/20 04:21:54;;;;;;;39.28;16.00;;;;;;;1.42;53.38;101871.06;5076051;28;20812;-69
2022/03/20 04:24:20;;;;;;;37.67;16.05;;;;;;;1.40;53.37;101867.63;5074069;28;20101;-69
2022/03/20 04:26:46;;;;;;;37.55;16.45;;;;;;;1.38;53.38;101864.22;5075170;28;20032;-67
2022/03/20 04:29:11;;;;;;;44.25;16.25;;;;;;;1.37;53.54;101859.88;5072640;28;20040;-69
2022/03/20 04:31:37;;;;;;;37.85;17.17;;;;;;;1.35;53.57;101864.22;5073141;28;20044;-69
2022/03/20 04:34:04;;;;;;;36.00;15.50;;;;;;;1.37;53.15;101865.03;5071796;28;20016;-70
2022/03/20 04:36:30;;;;;;;37.05;16.30;;;;;;;1.36;53.18;101873.66;5071603;28;20033;-68
2022/03/20 04:38:58;;;;;;;42.20;15.98;;;;;;;1.33;53.31;101865.91;5070385;28;20037;-66
2022/03/20 04:41:24;;;;;;;45.10;17.08;;;;;;;1.30;53.54;101871.09;5065431;28;20058;-67
2022/03/20 04:43:50;;;;;;;38.30;15.82;;;;;;;1.26;53.80;101865.09;5074104;28;20040;-69
2022/03/20 04:46:16;;;;;;;42.22;17.90;;;;;;;1.27;53.55;101851.31;5075755;28;20016;-69
2022/03/20 04:59:39;;;;;;;32.92;16.30;;;;;;;1.20;53.81;101860.81;5069788;28;20039;-69
2022/03/20 05:02:05;;;;;;;36.97;16.67;;;;;;;1.20;54.03;101867.69;5069110;28;20028;-68
2022/03/20 05:04:30;;;;;;;38.42;15.68;;;;;;;1.18;54.09;101878.03;5072337;28;20433;-68
2022/03/20 05:06:56;;;;;;;37.35;15.40;;;;;;;1.17;54.04;101876.31;5075554;28;20028;-67
2022/03/20 05:14:50;;;;;;;37.70;16.02;;;;;;;1.10;54.51;101884.94;5072046;28;20048;-69
2022/03/20 05:17:15;;;;;;;38.22;16.73;;;;;;;1.09;54.36;101883.22;5073138;28;20398;-68
2022/03/20 05:19:41;;;;;;;36.28;16.90;;;;;;;1.06;54.47;101872.88;5053503;28;20128;-68
2022/03/20 05:22:11;;;;;;;37.45;16.63;;;;;;;1.05;54.58;101896.16;5071383;28;20031;-69
2022/03/20 05:24:37;;;;;;;34.45;14.65;;;;;;;1.04;54.76;101879.81;5070318;28;20029;-69
2022/03/20 05:27:04;;;;;;;38.25;16.30;;;;;;;1.06;55.04;101893.56;5070844;28;20043;-67
2022/03/20 05:29:30;;;;;;;35.10;14.75;;;;;;;1.05;54.78;101891.84;5073219;28;20429;-67
2022/03/20 05:31:56;;;;;;;43.53;17.90;;;;;;;1.08;54.63;101896.16;5072826;28;20036;-68
2022/03/20 05:34:22;;;;;;;39.55;16.35;;;;;;;1.08;54.95;101896.16;5069528;28;20028;-67
2022/03/20 05:36:48;;;;;;;37.50;16.70;;;;;;;1.12;54.81;101895.28;5070070;28;20021;-68
2022/03/20 05:39:14;;;;;;;37.92;17.10;;;;;;;1.14;54.74;101896.13;5069418;28;20040;-66
2022/03/20 05:41:48;;;;;;;33.47;16.52;;;;;;;1.13;55.13;101897.84;5069247;28;20409;-68
2022/03/20 05:44:15;;;;;;;42.33;16.85;;;;;;;1.16;54.68;101904.75;5067983;28;20491;-66
2022/03/20 05:46:42;;;;;;;37.13;17.20;;;;;;;1.17;55.13;101894.41;5068705;28;20068;-69
2022/03/20 05:49:07;;;;;;;39.97;16.85;;;;;;;1.20;54.88;101899.56;5072478;28;20024;-68
2022/03/20 05:51:34;;;;;;;40.78;17.17;;;;;;;1.20;54.83;101896.13;5072413;28;20524;-67
2022/03/20 05:54:00;;;;;;;41.40;17.05;;;;;;;1.23;54.70;101893.53;5071944;28;20124;-70
2022/03/20 05:59:09;;;;;;;42.08;17.10;;;;;;;1.34;54.98;101902.13;5063140;28;20051;-68
2022/03/20 06:01:34;;;;;;;35.95;16.02;;;;;;;1.37;54.55;101896.94;5069246;28;20147;-68
2022/03/20 06:04:00;;;;;;;36.38;16.17;;;;;;;1.39;54.26;101899.50;5075833;28;20029;-68
2022/03/20 06:06:26;;;;;;;39.30;16.80;;;;;;;1.48;54.01;101898.63;5076481;28;20036;-68
2022/03/20 06:08:52;;;;;;;37.65;16.20;;;;;;;1.51;53.74;101902.03;5074952;28;20033;-69
2022/03/20 06:11:17;;;;;;;43.95;17.38;;;;;;;1.55;53.88;101889.97;5075427;28;20025;-68
2022/03/20 06:13:45;;;;;;;34.80;14.98;;;;;;;1.61;53.89;101890.81;5063500;28;20037;-68
2022/03/20 06:16:10;;;;;;;36.33;16.58;;;;;;;1.64;53.66;101882.19;5057752;28;20782;-67
2022/03/20 06:18:42;;;;;;;36.80;16.52;;;;;;;1.70;53.75;101890.75;5070438;28;20153;-69
2022/03/20 06:21:11;;;;;;;34.97;15.63;;;;;;;1.75;53.38;101898.53;5075780;28;20037;-68
2022/03/20 06:23:37;;;;;;;36.00;15.98;;;;;;;1.83;53.76;101891.59;5077233;28;20024;-67
2022/03/20 06:26:03;;;;;;;34.20;16.23;;;;;;;1.93;53.82;101893.25;5078809;28;20465;-68
2022/03/20 06:28:29;;;;;;;35.70;15.93;;;;;;;2.06;53.01;101891.44;5059191;28;20055;-68
2022/03/20 06:30:54;;;;;;;37.95;16.30;;;;;;;2.09;53.33;101906.09;5078956;28;20024;-67
2022/03/20 06:33:20;;;;;;;32.13;15.45;;;;;;;2.22;52.71;101901.72;5076717;28;20043;-67
2022/03/20 06:35:46;;;;;;;35.40;15.68;;;;;;;2.23;52.67;101909.47;5076754;28;20063;-70
2022/03/20 06:38:12;;;;;;;38.60;14.88;;;;;;;2.23;52.08;101903.44;5076850;28;20040;-67
2022/03/20 06:40:37;;;;;;;37.80;16.77;;;;;;;2.26;52.14;101901.66;5076114;28;20024;-68
2022/03/20 06:43:02;;;;;;;32.45;15.82;;;;;;;2.31;51.60;101907.69;5074930;28;20103;-68
2022/03/20 06:45:28;;;;;;;34.45;16.20;;;;;;;2.37;51.29;101899.91;5072265;28;20486;-68
2022/03/20 06:47:54;;;;;;;31.23;15.32;;;;;;;2.42;51.38;101892.94;5072908;28;20141;-68
2022/03/20 06:50:19;;;;;;;34.00;15.63;;;;;;;2.46;51.69;101895.53;5073422;28;20091;-66
2022/03/20 06:52:45;;;;;;;31.33;14.73;;;;;;;2.49;51.20;101900.69;5067683;28;20037;-67
2022/03/20 06:55:13;;;;;;;32.72;15.95;;;;;;;2.62;50.92;101902.28;5066758;28;20203;-67
2022/03/20 06:57:44;;;;;;;38.00;17.08;;;;;;;2.71;50.41;101901.34;5073133;28;20119;-67
2022/03/20 07:00:10;;;;;;;34.45;15.05;;;;;;;2.73;50.57;101905.66;5070035;28;20550;-68
2022/03/20 07:02:35;;;;;;;33.92;16.00;;;;;;;2.81;50.38;101901.25;5068494;28;20059;-68
2022/03/20 07:05:01;;;;;;;37.95;15.68;;;;;;;2.86;50.21;101898.63;5066975;28;20490;-68
2022/03/20 07:07:27;;;;;;;34.13;15.40;;;;;;;2.91;50.51;101895.13;5070074;28;20060;-70
2022/03/20 07:09:53;;;;;;;39.75;14.70;;;;;;;3.02;50.24;101904.53;5069015;28;20028;-67
2022/03/20 07:12:18;;;;;;;34.85;16.23;;;;;;;3.11;49.73;101905.28;5066858;28;20072;-68
2022/03/20 07:14:44;;;;;;;32.47;14.60;;;;;;;3.22;49.38;101902.59;5068299;28;20688;-68
2022/03/20 07:17:13;;;;;;;32.28;15.32;;;;;;;3.32;49.75;101903.34;5067517;28;20048;-69
2022/03/20 07:19:40;;;;;;;43.10;15.52;;;;;;;3.50;49.04;101903.16;5052843;28;20112;-68
2022/03/20 07:22:06;;;;;;;43.13;16.92;;;;;;;3.60;48.87;101884.03;5067456;28;20029;-67
2022/03/20 07:24:36;;;;;;;29.30;14.07;;;;;;;3.70;48.50;101902.91;5072630;28;20036;-69
2022/03/20 07:29:49;;;;;;;32.33;14.05;;;;;;;3.90;47.97;101907.00;5066381;28;20048;-67
2022/03/20 07:32:14;;;;;;;31.02;13.80;;;;;;;3.98;47.52;101900.81;5069249;28;20060;-69
2022/03/20 07:34:40;;;;;;;31.45;14.90;;;;;;;4.13;47.43;101904.94;5065586;28;20037;-69
2022/03/20 07:37:06;;;;;;;32.15;15.48;;;;;;;4.26;47.16;101909.06;5072430;28;20024;-69
2022/03/20 07:39:33;;;;;;;33.38;14.43;;;;;;;4.35;46.12;101908.94;5071468;28;20094;-68
2022/03/20 07:41:58;;;;;;;31.85;14.40;;;;;;;4.50;46.00;101923.44;5072082;28;20029;-67
2022/03/20 07:44:25;;;;;;;33.63;14.93;;;;;;;4.55;45.58;101894.78;5048373;28;20036;-69
2022/03/20 07:46:54;;;;;;;37.13;14.88;;;;;;;4.64;45.37;101912.84;5076760;28;20086;-71
2022/03/20 07:49:20;;;;;;;39.00;16.35;;;;;;;4.78;45.72;101913.47;5053728;28;20116;-67
2022/03/20 07:51:46;;;;;;;29.50;14.45;;;;;;;4.84;45.12;101909.91;5071529;28;20044;-67
2022/03/20 07:54:12;;;;;;;30.55;13.70;;;;;;;4.95;45.29;101910.56;5065644;28;20534;-69
2022/03/20 07:56:37;;;;;;;31.17;15.15;;;;;;;5.06;45.07;101903.44;5071681;28;20083;-68
2022/03/20 07:59:05;;;;;;;31.42;14.13;;;;;;;5.17;44.44;101900.63;5044400;28;20102;-69
2022/03/20 08:01:32;;;;;;;31.73;14.18;;;;;;;5.30;44.26;101904.75;5068403;28;20486;-68
2022/03/20 08:03:57;;;;;;;29.50;14.30;;;;;;;5.45;44.19;101903.59;5070627;28;20117;-69
2022/03/20 08:06:22;;;;;;;32.17;14.60;;;;;;;5.56;43.65;101908.56;5060637;28;20226;-70
2022/03/20 08:08:48;;;;;;;31.13;14.63;;;;;;;5.66;43.09;101899.69;5068354;28;20121;-67
2022/03/20 08:11:14;;;;;;;31.80;13.57;;;;;;;5.86;43.03;101899.28;5065807;28;20036;-69
2022/03/20 08:13:40;;;;;;;29.90;14.95;;;;;;;5.96;41.87;101894.75;5062768;28;20051;-69
2022/03/20 08:16:05;;;;;;;27.02;13.50;;;;;;;6.10;41.86;101890.09;5071799;28;20028;-69
2022/03/20 08:18:31;;;;;;;33.53;12.60;;;;;;;6.25;41.58;101902.75;5067643;28;20040;-69
2022/03/20 08:20:56;;;;;;;26.60;12.98;;;;;;;6.32;41.05;101898.28;5071256;28;20040;-67
2022/03/20 08:23:21;;;;;;;33.15;13.18;;;;;;;6.35;40.58;101900.81;5080505;28;20070;-67
2022/03/20 08:25:47;;;;;;;26.55;12.70;;;;;;;6.43;40.88;101904.09;5071214;28;20036;-66
2022/03/20 08:28:12;;;;;;;28.90;14.45;;;;;;;6.50;40.62;101903.06;5066707;28;20107;-68
2022/03/20 08:30:41;;;;;;;28.83;13.68;;;;;;;6.52;40.03;101895.19;5060655;28;20032;-71
2022/03/20 08:33:06;;;;;;;26.77;13.27;;;;;;;6.63;40.26;101900.13;5060284;28;20040;-70
2022/03/20 08:35:31;;;;;;;24.65;13.50;;;;;;;6.55;40.32;101901.19;5062571;28;20041;-70
2022/03/20 08:37:57;;;;;;;30.77;12.45;;;;;;;6.64;40.48;101901.88;5066337;28;20037;-70
2022/03/20 08:40:24;;;;;;;40.58;13.15;;;;;;;6.62;40.34;101903.66;5063929;28;20116;-71
2022/03/20 08:42:54;;;;;;;30.63;13.30;;;;;;;6.63;40.27;101887.13;5079083;28;20641;-69
2022/03/20 08:45:24;;;;;;;33.60;12.57;;;;;;;6.66;40.58;101895.72;5058292;28;20051;-67
2022/03/20 08:47:50;;;;;;;27.40;13.07;;;;;;;6.76;40.27;101886.78;5077728;28;20037;-68
2022/03/20 08:50:18;;;;;;;25.95;13.15;;;;;;;6.98;40.38;101892.28;5066246;28;20036;-69
2022/03/20 08:52:46;;;;;;;24.20;11.95;;;;;;;7.01;38.84;101873.97;5049693;28;20115;-68
2022/03/20 08:55:12;;;;;;;35.05;13.10;;;;;;;7.02;39.11;101880.88;5061646;28;20535;-68
2022/03/20 08:57:43;;;;;;;25.20;12.50;;;;;;;7.06;39.12;101875.59;5065684;28;20082;-69
2022/03/20 09:00:11;;;;;;;32.38;11.73;;;;;;;7.08;38.78;101869.41;5062014;28;20055;-70
2022/03/20 09:02:37;;;;;;;25.55;12.05;;;;;;;7.17;38.60;101866.56;5047490;28;20161;-68
2022/03/20 09:05:04;;;;;;;25.77;13.27;;;;;;;7.28;39.04;101867.13;5067788;28;20139;-69
2022/03/20 09:07:30;;;;;;;23.20;11.80;;;;;;;7.38;39.16;101857.31;5057748;28;20033;-68
2022/03/20 09:09:55;;;;;;;23.52;11.88;;;;;;;7.40;39.16;101862.47;5061636;28;20043;-71
2022/03/20 09:12:21;;;;;;;23.70;11.60;;;;;;;7.52;38.92;101867.34;5064575;28;20040;-70
2022/03/20 09:14:46;;;;;;;30.02;14.18;;;;;;;7.56;39.02;101842.84;5063264;28;20036;-71
2022/03/20 09:20:03;;;;;;;29.42;12.32;;;;;;;7.58;38.83;101854.09;5045602;28;20118;-69
2022/03/20 09:22:29;;;;;;;19.48;11.27;;;;;;;7.67;39.47;101858.19;5043365;28;20028;-71
2022/03/20 09:24:54;;;;;;;25.60;12.93;;;;;;;7.80;39.03;101853.47;5062640;28;20076;-69
2022/03/20 09:27:22;;;;;;;24.20;12.18;;;;;;;7.92;38.65;101853.09;5062428;28;20178;-71
2022/03/20 09:32:15;;;;;;;22.40;10.85;;;;;;;7.96;38.76;101852.09;5048669;28;20056;-71
2022/03/20 09:34:40;;;;;;;20.23;11.73;;;;;;;8.00;38.26;101859.78;5047105;28;20067;-68
2022/03/20 09:37:05;;;;;;;24.23;11.07;;;;;;;8.08;37.93;101848.25;5027468;28;20126;-68
2022/03/20 09:39:31;;;;;;;22.85;11.23;;;;;;;8.27;37.91;101843.28;5046090;28;20054;-67
2022/03/20 09:41:58;;;;;;;31.70;11.95;;;;;;;8.36;37.89;101833.41;5042412;28;20032;-66
2022/03/20 09:44:24;;;;;;;30.63;10.85;;;;;;;8.37;37.04;101827.28;5046407;28;20033;-66
2022/03/20 09:46:50;;;;;;;21.58;11.63;;;;;;;8.43;37.45;101834.09;5027647;28;20364;-67
2022/03/20 09:49:18;;;;;;;28.05;12.73;;;;;;;8.51;37.03;101828.59;5043412;28;20509;-67
2022/03/20 09:51:44;;;;;;;24.48;10.98;;;;;;;8.61;36.75;101835.25;5044368;28;20053;-67
2022/03/20 09:54:13;;;;;;;27.35;12.43;;;;;;;8.67;37.00;101845.47;5046617;28;20263;-68
2022/03/20 09:56:42;;;;;;;20.15;10.68;;;;;;;8.67;37.25;101835.88;5028853;28;20041;-69
2022/03/20 09:59:08;;;;;;;21.75;10.35;;;;;;;8.80;37.07;101836.31;5046752;28;20041;-68
2022/03/20 10:01:34;;;;;;;26.50;11.00;;;;;;;8.77;37.04;101835.56;5044596;28;20768;-68
2022/03/20 10:04:14;;;;;;;22.08;11.60;;;;;;;8.84;36.69;101837.91;5019831;28;20362;-68
2022/03/20 10:06:41;;;;;;;24.42;11.73;;;;;;;8.93;36.60;101837.56;5028690;28;20866;-68
2022/03/20 10:09:09;;;;;;;23.33;10.77;;;;;;;8.99;36.54;101836.53;5043400;28;20055;-66
2022/03/20 10:11:38;;;;;;;20.52;10.52;;;;;;;9.19;35.89;101834.03;5028024;28;20036;-69
2022/03/20 10:14:07;;;;;;;27.38;10.98;;;;;;;9.34;35.79;101832.63;5043649;28;20039;-67
2022/03/20 10:16:32;;;;;;;;;;;;;;;9.45;35.48;101820.00;5044236;28;20025;-67
2022/03/20 10:18:58;;;;;;;20.05;10.57;;;;;;;9.54;35.35;101825.81;5043936;28;19928;-67
2022/03/20 10:21:42;;;;;;;23.90;10.63;;;;;;;9.72;33.41;101824.25;5030545;28;20044;-69
2022/03/20 10:24:17;;;;;;;24.60;11.20;;;;;;;9.81;33.16;101827.34;5042382;28;20663;-69
2022/03/20 10:26:43;;;;;;;23.50;9.75;;;;;;;9.79;33.14;101813.47;5049588;28;20730;-71
2022/03/20 10:29:16;;;;;;;19.58;9.77;;;;;;;9.91;31.20;101823.47;5041715;28;20139;-69
2022/03/20 10:31:49;;;;;;;21.60;9.73;;;;;;;10.02;31.05;101809.09;5043440;28;20167;-68
2022/03/20 10:34:15;;;;;;;22.75;9.30;;;;;;;10.06;31.09;101801.03;5048557;28;20075;-68
2022/03/20 10:36:43;;;;;;;20.50;9.35;;;;;;;10.09;30.46;101813.19;5048833;28;20186;-69
2022/03/20 10:39:11;;;;;;;15.85;9.23;;;;;;;10.23;30.32;101804.72;5048716;28;20052;-68
2022/03/20 10:41:38;;;;;;;29.77;10.30;;;;;;;10.26;30.07;101791.53;5049288;28;20090;-68
2022/03/20 10:44:16;;;;;;;16.00;8.73;;;;;;;10.29;30.92;101799.28;5047711;28;20186;-67
2022/03/20 10:46:43;;;;;;;21.83;9.48;;;;;;;10.36;29.79;101785.84;5048738;28;20122;-67
2022/03/20 10:49:11;;;;;;;22.35;9.10;;;;;;;10.52;29.69;101783.41;5026903;28;20040;-69
2022/03/20 10:51:37;;;;;;;18.13;8.65;;;;;;;10.53;29.41;101784.25;5050768;28;20122;-67
2022/03/20 10:54:13;;;;;;;18.02;9.07;;;;;;;10.53;31.30;101777.28;5051391;28;20032;-70
2022/03/20 10:56:56;;;;;;;16.23;9.88;;;;;;;10.64;29.74;101784.66;5046977;28;20033;-67
2022/03/20 10:59:22;;;;;;;18.88;9.18;;;;;;;10.77;29.06;101791.09;5034991;28;20243;-68
2022/03/20 11:01:48;;;;;;;20.35;9.07;;;;;;;10.75;30.73;101795.53;5037026;28;20041;-69
2022/03/20 11:04:16;;;;;;;19.75;9.73;;;;;;;10.86;29.25;101795.06;5025112;28;20042;-73
2022/03/20 11:06:47;;;;;;;23.75;8.73;;;;;;;10.88;29.78;101795.88;5044268;28;20051;-68
2022/03/20 11:09:13;;;;;;;18.35;8.35;;;;;;;10.94;29.22;101779.00;5032253;28;20044;-69
2022/03/20 11:11:50;;;;;;;18.27;8.98;;;;;;;11.00;30.21;101802.34;5042916;28;20044;-68
2022/03/20 11:14:18;;;;;;;21.70;8.98;;;;;;;11.11;30.43;101795.69;5047858;28;20063;-68
2022/03/20 11:16:47;;;;;;;21.67;8.45;;;;;;;11.17;30.18;101788.47;5046260;28;20045;-71
2022/03/20 11:19:13;;;;;;;17.63;9.30;;;;;;;11.20;28.69;101783.94;5044522;28;20029;-72
2022/03/20 11:21:44;;;;;;;15.32;8.70;;;;;;;11.26;28.66;101778.38;5047171;28;20421;-69
2022/03/20 11:24:12;;;;;;;18.10;8.00;;;;;;;11.38;28.90;101769.09;5041379;28;20041;-69
2022/03/20 11:26:43;;;;;;;14.52;8.18;;;;;;;11.30;28.21;101777.31;5041348;28;20786;-68
2022/03/20 11:29:12;;;;;;;15.02;7.88;;;;;;;11.35;27.23;101775.34;5045424;28;20097;-67
2022/03/20 11:31:38;;;;;;;28.48;8.20;;;;;;;11.44;26.33;101794.25;5045977;28;20136;-70
2022/03/20 11:34:08;;;;;;;30.75;8.40;;;;;;;11.53;26.34;101788.53;5028661;28;20135;-67
2022/03/20 11:37:12;;;;;;;29.45;7.35;;;;;;;11.64;25.99;101781.00;5029779;28;20501;-69
2022/03/20 11:40:10;;;;;;;19.30;6.88;;;;;;;11.79;25.87;101789.94;5047645;28;20076;-69
2022/03/20 11:42:36;;;;;;;;;;;;;;;11.80;24.88;101775.88;5043143;28;20102;-71
2022/03/20 11:45:04;;;;;;;43.50;7.57;;;;;;;11.81;24.97;101773.16;5030592;28;20712;-69
2022/03/20 11:47:44;;;;;;;20.70;7.10;;;;;;;11.79;23.90;101790.81;5048517;28;20064;-68